Time,TemperatureF,DewpointF,PressureIn,WindDirection,WindDirectionDegrees,WindSpeedMPH,WindSpeedGustMPH,Humidity,HourlyPrecipIn,Conditions,Clouds,dailyrainin,SoftwareType,DateUTC
2013-08-21 00:01:00,70.5,69.0,30.17,WSW,243,0.0,1.0,95,0.00,,---,0.00,VWS V13.01,2013-08-21 04:01:00,
2013-08-21 00:31:00,70.4,68.9,30.18,WSW,243,0.0,0.0,95,0.00,,---,0.00,VWS V13.01,2013-08-21 04:31:00,
2013-08-21 01:01:00,70.3,68.8,30.17,WSW,243,0.0,0.0,95,0.00,,---,0.00,VWS V13.01,2013-08-21 05:01:00,
2013-08-21 01:31:00,70.3,69.1,30.16,WSW,243,0.0,1.0,96,0.00,,---,0.00,VWS V13.01,2013-08-21 05:31:00,
2013-08-21 02:01:00,70.2,69.0,30.16,WSW,243,0.0,0.0,96,0.00,,---,0.00,VWS V13.01,2013-08-21 06:01:00,
2013-08-21 02:31:00,70.3,69.1,30.16,WSW,243,0.0,0.0,96,0.00,,---,0.00,VWS V13.01,2013-08-21 06:31:00,
2013-08-21 03:01:00,70.2,69.0,30.16,WSW,243,0.0,0.0,96,0.00,,---,0.00,VWS V13.01,2013-08-21 07:01:00,
2013-08-21 03:31:00,70.4,69.2,30.15,WSW,243,0.0,0.0,96,0.00,,---,0.00,VWS V13.01,2013-08-21 07:31:00,
2013-08-21 04:01:00,70.3,69.1,30.15,WSW,243,0.0,0.0,96,0.00,,---,0.00,VWS V13.01,2013-08-21 08:01:00,
2013-08-21 04:31:00,70.3,69.1,30.15,WSW,243,0.0,0.0,96,0.01,,---,0.01,VWS V13.01,2013-08-21 08:31:00,
2013-08-21 05:01:00,70.3,69.1,30.16,WSW,243,0.0,0.0,96,0.04,,---,0.04,VWS V13.01,2013-08-21 09:01:00,
2013-08-21 05:31:00,70.2,69.0,30.17,WSW,243,0.0,0.0,96,0.07,,---,0.08,VWS V13.01,2013-08-21 09:31:00,
2013-08-21 06:01:00,69.9,68.7,30.15,WSW,243,0.0,2.0,96,0.12,,---,0.13,VWS V13.01,2013-08-21 10:01:00,
2013-08-21 06:31:00,69.6,68.7,30.15,WSW,243,0.0,1.0,97,0.10,,---,0.14,VWS V13.01,2013-08-21 10:31:00,
2013-08-21 07:01:00,69.4,68.5,30.16,WSW,243,0.0,0.0,97,0.06,,---,0.14,VWS V13.01,2013-08-21 11:01:00,
2013-08-21 07:31:00,69.5,68.6,30.17,WSW,243,0.0,0.0,97,0.01,,---,0.14,VWS V13.01,2013-08-21 11:31:00,
2013-08-21 08:01:00,69.8,68.9,30.18,WSW,243,0.0,0.0,97,0.00,,---,0.14,VWS V13.01,2013-08-21 12:01:00,
2013-08-21 08:31:00,70.3,69.4,30.19,WSW,249,0.0,2.0,97,0.00,,---,0.14,VWS V13.01,2013-08-21 12:31:00,
2013-08-21 09:01:00,70.9,70.0,30.20,WSW,249,0.0,0.0,97,0.00,,---,0.14,VWS V13.01,2013-08-21 13:01:00,
2013-08-21 09:31:00,71.1,70.2,30.21,WSW,242,0.0,2.0,97,0.00,,---,0.14,VWS V13.01,2013-08-21 13:31:00,
2013-08-21 10:01:00,71.3,70.4,30.22,WSW,243,0.0,2.0,97,0.00,,---,0.14,VWS V13.01,2013-08-21 14:01:00,
2013-08-21 10:31:00,72.4,71.2,30.22,WSW,243,0.0,1.0,96,0.00,,---,0.14,VWS V13.01,2013-08-21 14:31:00,
2013-08-21 11:01:00,74.3,72.8,30.22,WSW,250,2.0,2.0,95,0.00,,---,0.14,VWS V13.01,2013-08-21 15:01:00,
2013-08-21 11:31:00,75.6,72.8,30.22,WSW,251,0.0,3.0,91,0.00,,---,0.14,VWS V13.01,2013-08-21 15:31:00,
2013-08-21 12:01:00,75.6,73.1,30.22,WSW,251,0.0,1.0,92,0.00,,---,0.14,VWS V13.01,2013-08-21 16:01:00,
2013-08-21 12:31:00,74.4,72.6,30.22,WSW,251,0.0,1.0,94,0.18,,---,0.32,VWS V13.01,2013-08-21 16:31:00,
2013-08-21 13:01:00,71.8,70.0,30.22,NNW,346,0.0,4.0,94,0.23,,---,0.37,VWS V13.01,2013-08-21 17:01:00,
2013-08-21 13:31:00,71.3,69.8,30.20,NNW,348,0.0,2.0,95,0.37,,---,0.51,VWS V13.01,2013-08-21 17:31:00,
2013-08-21 14:01:00,71.7,70.5,30.19,NNW,348,0.0,1.0,96,0.21,,---,0.53,VWS V13.01,2013-08-21 18:01:00,
2013-08-21 14:31:00,72.6,71.7,30.17,NNW,348,0.0,2.0,97,0.19,,---,0.56,VWS V13.01,2013-08-21 18:31:00,
2013-08-21 15:01:00,74.0,73.1,30.16,NNW,348,0.0,1.0,97,0.05,,---,0.56,VWS V13.01,2013-08-21 19:01:00,
2013-08-21 15:31:00,75.1,73.6,30.16,NNW,348,0.0,2.0,95,0.03,,---,0.56,VWS V13.01,2013-08-21 19:31:00,
2013-08-21 16:01:00,76.3,73.8,30.16,NNW,348,0.0,2.0,92,0.00,,---,0.56,VWS V13.01,2013-08-21 20:01:00,
2013-08-21 16:31:00,77.1,74.6,30.16,NNW,348,0.0,1.0,92,0.00,,---,0.56,VWS V13.01,2013-08-21 20:31:00,
2013-08-21 17:01:00,77.3,74.1,30.15,NNW,348,0.0,2.0,90,0.00,,---,0.56,VWS V13.01,2013-08-21 21:01:00,
2013-08-21 17:31:00,79.6,74.0,30.13,NNW,348,0.0,1.0,83,0.00,,---,0.56,VWS V13.01,2013-08-21 21:31:00,
2013-08-21 18:01:00,79.9,73.6,30.12,NNW,344,0.0,1.0,81,0.00,,---,0.56,VWS V13.01,2013-08-21 22:01:00,
2013-08-21 18:31:00,79.0,73.4,30.11,NNW,344,0.0,1.0,83,0.00,,---,0.56,VWS V13.01,2013-08-21 22:31:00,
2013-08-21 19:01:00,78.7,72.4,30.11,SW,217,0.0,3.0,81,0.00,,---,0.56,VWS V13.01,2013-08-21 23:01:00,
2013-08-21 19:31:00,76.9,72.7,30.13,SW,217,0.0,0.0,87,0.00,,---,0.56,VWS V13.01,2013-08-21 23:31:00,
2013-08-21 20:01:00,74.6,71.8,30.12,SW,217,0.0,1.0,91,0.00,,---,0.56,VWS V13.01,2013-08-22 00:01:00,
2013-08-21 20:31:00,73.3,71.2,30.11,SW,217,0.0,0.0,93,0.00,,---,0.56,VWS V13.01,2013-08-22 00:31:00,
2013-08-21 21:01:00,72.6,70.8,30.11,SW,217,0.0,0.0,94,0.00,,---,0.56,VWS V13.01,2013-08-22 01:01:00,
2013-08-21 21:31:00,72.0,70.2,30.13,SW,217,0.0,1.0,94,0.00,,---,0.56,VWS V13.01,2013-08-22 01:31:00,
2013-08-21 22:01:00,71.7,70.2,30.14,SW,217,0.0,1.0,95,0.00,,---,0.56,VWS V13.01,2013-08-22 02:01:00,
2013-08-21 22:31:00,71.4,69.9,30.16,SW,217,0.0,0.0,95,0.00,,---,0.56,VWS V13.01,2013-08-22 02:31:00,
2013-08-21 23:01:00,71.0,69.8,30.15,SW,217,0.0,1.0,96,0.00,,---,0.56,VWS V13.01,2013-08-22 03:01:00,
2013-08-21 23:31:00,70.6,69.4,30.14,SW,217,0.0,0.0,96,0.00,,---,0.56,VWS V13.01,2013-08-22 03:31:00,